sensor_id;sensor_type;location;lat;lon;timestamp;P1;durP1;ratioP1;P2;durP2;ratioP2
23310;SDS011;11828;51.508;18.118;2023-04-24T00:00:57;255.68;;;88.20;;
23310;SDS011;11828;51.508;18.118;2023-04-24T00:03:26;267.38;;;88.30;;
23310;SDS011;11828;51.508;18.118;2023-04-24T00:05:53;258.95;;;89.32;;
23310;SDS011;11828;51.508;18.118;2023-04-24T00:08:20;259.20;;;89.43;;
23310;SDS011;11828;51.508;18.118;2023-04-24T00:10:49;263.88;;;89.40;;
23310;SDS011;11828;51.508;18.118;2023-04-24T00:13:15;269.85;;;93.50;;
23310;SDS011;11828;51.508;18.118;2023-04-24T00:15:41;260.25;;;90.13;;
23310;SDS011;11828;51.508;18.118;2023-04-24T00:18:08;266.88;;;96.88;;
23310;SDS011;11828;51.508;18.118;2023-04-24T00:20:34;187.23;;;70.28;;
23310;SDS011;11828;51.508;18.118;2023-04-24T00:23:03;258.08;;;90.70;;
23310;SDS011;11828;51.508;18.118;2023-04-24T00:25:29;255.70;;;90.85;;
23310;SDS011;11828;51.508;18.118;2023-04-24T00:27:55;270.90;;;91.55;;
23310;SDS011;11828;51.508;18.118;2023-04-24T00:30:21;261.38;;;91.90;;
23310;SDS011;11828;51.508;18.118;2023-04-24T00:32:47;267.13;;;94.07;;
23310;SDS011;11828;51.508;18.118;2023-04-24T00:35:13;263.45;;;92.97;;
23310;SDS011;11828;51.508;18.118;2023-04-24T00:37:40;118.43;;;48.35;;
23310;SDS011;11828;51.508;18.118;2023-04-24T00:40:06;263.40;;;92.50;;
23310;SDS011;11828;51.508;18.118;2023-04-24T00:42:34;265.40;;;93.65;;
23310;SDS011;11828;51.508;18.118;2023-04-24T00:45:00;257.15;;;91.03;;
23310;SDS011;11828;51.508;18.118;2023-04-24T00:47:28;256.77;;;91.78;;
23310;SDS011;11828;51.508;18.118;2023-04-24T00:49:55;248.90;;;90.45;;
23310;SDS011;11828;51.508;18.118;2023-04-24T00:52:21;228.75;;;81.45;;
23310;SDS011;11828;51.508;18.118;2023-04-24T00:54:49;251.55;;;90.40;;
23310;SDS011;11828;51.508;18.118;2023-04-24T00:57:15;116.13;;;49.58;;
23310;SDS011;11828;51.508;18.118;2023-04-24T00:59:42;257.92;;;91.40;;
23310;SDS011;11828;51.508;18.118;2023-04-24T01:02:09;256.20;;;90.05;;
23310;SDS011;11828;51.508;18.118;2023-04-24T01:04:36;266.92;;;92.68;;
23310;SDS011;11828;51.508;18.118;2023-04-24T01:07:04;249.63;;;89.40;;
23310;SDS011;11828;51.508;18.118;2023-04-24T01:09:39;249.13;;;87.03;;
23310;SDS011;11828;51.508;18.118;2023-04-24T01:12:09;257.63;;;91.68;;
23310;SDS011;11828;51.508;18.118;2023-04-24T01:14:35;251.05;;;88.95;;
23310;SDS011;11828;51.508;18.118;2023-04-24T01:17:02;259.50;;;90.55;;
23310;SDS011;11828;51.508;18.118;2023-04-24T01:19:28;252.00;;;88.80;;
23310;SDS011;11828;51.508;18.118;2023-04-24T01:21:56;249.48;;;88.13;;
23310;SDS011;11828;51.508;18.118;2023-04-24T01:24:24;254.45;;;88.97;;
23310;SDS011;11828;51.508;18.118;2023-04-24T01:26:51;284.20;;;92.97;;
23310;SDS011;11828;51.508;18.118;2023-04-24T01:29:17;253.52;;;87.40;;
23310;SDS011;11828;51.508;18.118;2023-04-24T01:31:43;181.82;;;70.05;;
23310;SDS011;11828;51.508;18.118;2023-04-24T01:34:10;215.40;;;84.15;;
23310;SDS011;11828;51.508;18.118;2023-04-24T01:36:36;233.93;;;87.22;;
23310;SDS011;11828;51.508;18.118;2023-04-24T01:39:03;237.93;;;85.65;;
23310;SDS011;11828;51.508;18.118;2023-04-24T01:41:29;243.27;;;87.00;;
23310;SDS011;11828;51.508;18.118;2023-04-24T01:43:56;247.15;;;87.65;;
23310;SDS011;11828;51.508;18.118;2023-04-24T01:46:23;244.95;;;87.07;;
23310;SDS011;11828;51.508;18.118;2023-04-24T01:48:50;263.67;;;88.93;;
23310;SDS011;11828;51.508;18.118;2023-04-24T01:51:17;245.10;;;85.85;;
23310;SDS011;11828;51.508;18.118;2023-04-24T01:53:44;242.75;;;87.88;;
23310;SDS011;11828;51.508;18.118;2023-04-24T01:56:10;232.63;;;88.05;;
23310;SDS011;11828;51.508;18.118;2023-04-24T01:58:37;247.82;;;89.65;;
23310;SDS011;11828;51.508;18.118;2023-04-24T02:01:03;245.82;;;86.95;;
23310;SDS011;11828;51.508;18.118;2023-04-24T02:03:30;245.60;;;87.25;;
23310;SDS011;11828;51.508;18.118;2023-04-24T02:05:56;146.70;;;53.85;;
23310;SDS011;11828;51.508;18.118;2023-04-24T02:08:23;19.33;;;10.63;;
23310;SDS011;11828;51.508;18.118;2023-04-24T02:10:49;22.10;;;10.85;;
23310;SDS011;11828;51.508;18.118;2023-04-24T02:13:15;21.38;;;10.50;;
23310;SDS011;11828;51.508;18.118;2023-04-24T02:15:42;171.18;;;80.13;;
23310;SDS011;11828;51.508;18.118;2023-04-24T02:18:08;30.15;;;13.32;;
23310;SDS011;11828;51.508;18.118;2023-04-24T02:20:34;175.82;;;83.85;;
23310;SDS011;11828;51.508;18.118;2023-04-24T02:23:01;213.57;;;87.20;;
23310;SDS011;11828;51.508;18.118;2023-04-24T02:25:27;208.60;;;88.10;;
23310;SDS011;11828;51.508;18.118;2023-04-24T02:27:53;175.80;;;84.18;;
23310;SDS011;11828;51.508;18.118;2023-04-24T02:30:19;223.80;;;89.07;;
23310;SDS011;11828;51.508;18.118;2023-04-24T02:32:45;256.77;;;86.18;;
23310;SDS011;11828;51.508;18.118;2023-04-24T02:35:11;197.13;;;85.93;;
23310;SDS011;11828;51.508;18.118;2023-04-24T02:37:37;201.57;;;86.35;;
23310;SDS011;11828;51.508;18.118;2023-04-24T02:40:04;175.23;;;85.15;;
23310;SDS011;11828;51.508;18.118;2023-04-24T02:42:31;188.68;;;85.82;;
23310;SDS011;11828;51.508;18.118;2023-04-24T02:44:57;177.43;;;82.60;;
23310;SDS011;11828;51.508;18.118;2023-04-24T02:47:23;162.70;;;81.72;;
23310;SDS011;11828;51.508;18.118;2023-04-24T02:49:50;159.02;;;79.97;;
23310;SDS011;11828;51.508;18.118;2023-04-24T02:52:16;185.45;;;86.20;;
23310;SDS011;11828;51.508;18.118;2023-04-24T02:54:43;183.40;;;85.03;;
23310;SDS011;11828;51.508;18.118;2023-04-24T02:57:09;190.30;;;86.97;;
23310;SDS011;11828;51.508;18.118;2023-04-24T02:59:35;208.02;;;88.55;;
23310;SDS011;11828;51.508;18.118;2023-04-24T03:02:01;218.85;;;88.10;;
23310;SDS011;11828;51.508;18.118;2023-04-24T03:04:27;228.82;;;87.53;;
23310;SDS011;11828;51.508;18.118;2023-04-24T03:06:53;242.95;;;87.22;;
23310;SDS011;11828;51.508;18.118;2023-04-24T03:09:20;243.10;;;85.72;;
23310;SDS011;11828;51.508;18.118;2023-04-24T03:11:47;240.38;;;85.05;;
23310;SDS011;11828;51.508;18.118;2023-04-24T03:14:15;240.77;;;84.50;;
23310;SDS011;11828;51.508;18.118;2023-04-24T03:16:41;238.40;;;83.25;;
23310;SDS011;11828;51.508;18.118;2023-04-24T03:19:08;255.82;;;85.82;;
23310;SDS011;11828;51.508;18.118;2023-04-24T03:21:34;236.88;;;82.78;;
23310;SDS011;11828;51.508;18.118;2023-04-24T03:24:01;239.25;;;83.60;;
23310;SDS011;11828;51.508;18.118;2023-04-24T03:26:27;233.43;;;83.53;;
23310;SDS011;11828;51.508;18.118;2023-04-24T03:28:53;241.65;;;85.45;;
23310;SDS011;11828;51.508;18.118;2023-04-24T03:31:19;238.43;;;85.85;;
23310;SDS011;11828;51.508;18.118;2023-04-24T03:33:46;236.70;;;82.55;;
23310;SDS011;11828;51.508;18.118;2023-04-24T03:36:12;239.50;;;82.80;;
23310;SDS011;11828;51.508;18.118;2023-04-24T03:38:39;234.27;;;80.90;;
23310;SDS011;11828;51.508;18.118;2023-04-24T03:41:05;231.70;;;81.28;;
23310;SDS011;11828;51.508;18.118;2023-04-24T03:43:31;233.82;;;81.18;;
23310;SDS011;11828;51.508;18.118;2023-04-24T03:45:59;234.55;;;82.75;;
23310;SDS011;11828;51.508;18.118;2023-04-24T03:48:26;245.15;;;84.45;;
23310;SDS011;11828;51.508;18.118;2023-04-24T03:50:52;247.05;;;82.03;;
23310;SDS011;11828;51.508;18.118;2023-04-24T03:53:18;247.40;;;83.68;;
23310;SDS011;11828;51.508;18.118;2023-04-24T03:55:45;257.10;;;85.72;;
23310;SDS011;11828;51.508;18.118;2023-04-24T03:58:11;253.45;;;84.30;;
23310;SDS011;11828;51.508;18.118;2023-04-24T04:00:39;256.83;;;85.50;;
23310;SDS011;11828;51.508;18.118;2023-04-24T04:03:06;256.23;;;88.78;;
23310;SDS011;11828;51.508;18.118;2023-04-24T04:05:32;254.93;;;85.82;;
23310;SDS011;11828;51.508;18.118;2023-04-24T04:07:58;253.90;;;85.43;;
23310;SDS011;11828;51.508;18.118;2023-04-24T04:10:25;256.70;;;85.68;;
23310;SDS011;11828;51.508;18.118;2023-04-24T04:12:51;240.20;;;83.65;;
23310;SDS011;11828;51.508;18.118;2023-04-24T04:15:17;241.48;;;81.63;;
23310;SDS011;11828;51.508;18.118;2023-04-24T04:17:44;239.43;;;81.35;;
23310;SDS011;11828;51.508;18.118;2023-04-24T04:20:11;234.93;;;82.57;;
23310;SDS011;11828;51.508;18.118;2023-04-24T04:22:37;245.57;;;82.03;;
23310;SDS011;11828;51.508;18.118;2023-04-24T04:25:03;230.00;;;82.22;;
23310;SDS011;11828;51.508;18.118;2023-04-24T04:27:30;235.05;;;81.13;;
23310;SDS011;11828;51.508;18.118;2023-04-24T04:29:58;235.35;;;82.70;;
23310;SDS011;11828;51.508;18.118;2023-04-24T04:32:28;237.13;;;83.72;;
23310;SDS011;11828;51.508;18.118;2023-04-24T04:34:54;234.15;;;83.53;;
23310;SDS011;11828;51.508;18.118;2023-04-24T04:37:21;245.20;;;86.15;;
23310;SDS011;11828;51.508;18.118;2023-04-24T04:39:47;274.35;;;98.20;;
23310;SDS011;11828;51.508;18.118;2023-04-24T04:42:13;280.95;;;99.93;;
23310;SDS011;11828;51.508;18.118;2023-04-24T04:44:40;288.05;;;104.10;;
23310;SDS011;11828;51.508;18.118;2023-04-24T04:47:07;270.33;;;98.03;;
23310;SDS011;11828;51.508;18.118;2023-04-24T04:49:33;251.40;;;88.80;;
23310;SDS011;11828;51.508;18.118;2023-04-24T04:52:00;247.50;;;84.85;;
23310;SDS011;11828;51.508;18.118;2023-04-24T04:54:26;246.60;;;86.10;;
23310;SDS011;11828;51.508;18.118;2023-04-24T04:56:53;261.73;;;89.65;;
23310;SDS011;11828;51.508;18.118;2023-04-24T04:59:20;248.23;;;86.55;;
23310;SDS011;11828;51.508;18.118;2023-04-24T05:01:46;243.02;;;85.35;;
23310;SDS011;11828;51.508;18.118;2023-04-24T05:04:12;243.93;;;84.80;;
23310;SDS011;11828;51.508;18.118;2023-04-24T05:06:38;262.33;;;89.35;;
23310;SDS011;11828;51.508;18.118;2023-04-24T05:09:04;241.43;;;83.85;;
23310;SDS011;11828;51.508;18.118;2023-04-24T05:11:30;250.73;;;86.07;;
23310;SDS011;11828;51.508;18.118;2023-04-24T05:13:57;245.20;;;85.32;;
23310;SDS011;11828;51.508;18.118;2023-04-24T05:16:23;243.82;;;86.75;;
23310;SDS011;11828;51.508;18.118;2023-04-24T05:18:49;243.85;;;85.75;;
23310;SDS011;11828;51.508;18.118;2023-04-24T05:21:15;240.00;;;83.28;;
23310;SDS011;11828;51.508;18.118;2023-04-24T05:23:41;233.82;;;84.00;;
23310;SDS011;11828;51.508;18.118;2023-04-24T05:26:07;239.70;;;84.25;;
23310;SDS011;11828;51.508;18.118;2023-04-24T05:28:33;241.00;;;85.25;;
23310;SDS011;11828;51.508;18.118;2023-04-24T05:31:02;257.38;;;90.57;;
23310;SDS011;11828;51.508;18.118;2023-04-24T05:33:28;242.63;;;86.47;;
23310;SDS011;11828;51.508;18.118;2023-04-24T05:35:55;244.43;;;86.75;;
23310;SDS011;11828;51.508;18.118;2023-04-24T05:38:21;238.30;;;84.72;;
23310;SDS011;11828;51.508;18.118;2023-04-24T05:40:47;248.70;;;86.65;;
23310;SDS011;11828;51.508;18.118;2023-04-24T05:43:13;239.20;;;85.78;;
23310;SDS011;11828;51.508;18.118;2023-04-24T05:45:40;235.93;;;83.70;;
23310;SDS011;11828;51.508;18.118;2023-04-24T05:48:06;240.27;;;85.85;;
23310;SDS011;11828;51.508;18.118;2023-04-24T05:50:32;241.02;;;82.30;;
23310;SDS011;11828;51.508;18.118;2023-04-24T05:52:58;237.38;;;83.22;;
23310;SDS011;11828;51.508;18.118;2023-04-24T05:55:25;245.40;;;84.07;;
23310;SDS011;11828;51.508;18.118;2023-04-24T05:57:51;243.50;;;83.75;;
23310;SDS011;11828;51.508;18.118;2023-04-24T06:00:17;251.65;;;84.20;;
23310;SDS011;11828;51.508;18.118;2023-04-24T06:02:45;236.90;;;82.10;;
23310;SDS011;11828;51.508;18.118;2023-04-24T06:05:12;238.45;;;84.22;;
23310;SDS011;11828;51.508;18.118;2023-04-24T06:07:39;241.70;;;84.30;;
23310;SDS011;11828;51.508;18.118;2023-04-24T06:10:06;241.70;;;84.95;;
23310;SDS011;11828;51.508;18.118;2023-04-24T06:12:32;245.50;;;86.00;;
23310;SDS011;11828;51.508;18.118;2023-04-24T06:14:59;242.13;;;85.68;;
23310;SDS011;11828;51.508;18.118;2023-04-24T06:17:25;253.02;;;87.25;;
23310;SDS011;11828;51.508;18.118;2023-04-24T06:19:51;243.75;;;86.43;;
23310;SDS011;11828;51.508;18.118;2023-04-24T06:22:17;241.63;;;85.60;;
23310;SDS011;11828;51.508;18.118;2023-04-24T06:24:44;248.30;;;85.28;;
23310;SDS011;11828;51.508;18.118;2023-04-24T06:27:10;244.32;;;85.72;;
23310;SDS011;11828;51.508;18.118;2023-04-24T06:29:36;249.95;;;88.75;;
23310;SDS011;11828;51.508;18.118;2023-04-24T06:32:02;244.23;;;86.60;;
23310;SDS011;11828;51.508;18.118;2023-04-24T06:34:28;249.25;;;86.80;;
23310;SDS011;11828;51.508;18.118;2023-04-24T06:36:56;268.83;;;89.00;;
23310;SDS011;11828;51.508;18.118;2023-04-24T06:39:22;245.77;;;86.55;;
23310;SDS011;11828;51.508;18.118;2023-04-24T06:41:48;258.05;;;90.35;;
23310;SDS011;11828;51.508;18.118;2023-04-24T06:44:14;258.55;;;90.05;;
23310;SDS011;11828;51.508;18.118;2023-04-24T06:46:41;261.13;;;92.55;;
23310;SDS011;11828;51.508;18.118;2023-04-24T06:49:08;253.52;;;90.30;;
23310;SDS011;11828;51.508;18.118;2023-04-24T06:51:34;258.10;;;92.95;;
23310;SDS011;11828;51.508;18.118;2023-04-24T06:54:00;258.05;;;92.15;;
23310;SDS011;11828;51.508;18.118;2023-04-24T06:56:27;269.75;;;94.10;;
23310;SDS011;11828;51.508;18.118;2023-04-24T06:58:54;261.40;;;92.43;;
23310;SDS011;11828;51.508;18.118;2023-04-24T07:01:20;253.38;;;90.63;;
23310;SDS011;11828;51.508;18.118;2023-04-24T07:03:46;255.82;;;92.15;;
23310;SDS011;11828;51.508;18.118;2023-04-24T07:06:12;259.60;;;91.57;;
23310;SDS011;11828;51.508;18.118;2023-04-24T07:08:39;254.63;;;92.53;;
23310;SDS011;11828;51.508;18.118;2023-04-24T07:11:07;256.77;;;92.20;;
23310;SDS011;11828;51.508;18.118;2023-04-24T07:13:33;254.90;;;92.50;;
23310;SDS011;11828;51.508;18.118;2023-04-24T07:16:00;259.17;;;91.53;;
23310;SDS011;11828;51.508;18.118;2023-04-24T07:18:27;270.90;;;92.60;;
23310;SDS011;11828;51.508;18.118;2023-04-24T07:20:53;259.92;;;90.63;;
23310;SDS011;11828;51.508;18.118;2023-04-24T07:23:19;255.55;;;91.55;;
23310;SDS011;11828;51.508;18.118;2023-04-24T07:25:45;261.50;;;90.43;;
23310;SDS011;11828;51.508;18.118;2023-04-24T07:28:12;262.67;;;91.88;;
23310;SDS011;11828;51.508;18.118;2023-04-24T07:30:38;256.48;;;90.57;;
23310;SDS011;11828;51.508;18.118;2023-04-24T07:33:04;255.73;;;90.13;;
23310;SDS011;11828;51.508;18.118;2023-04-24T07:35:32;251.82;;;88.13;;
23310;SDS011;11828;51.508;18.118;2023-04-24T07:37:58;253.77;;;88.20;;
23310;SDS011;11828;51.508;18.118;2023-04-24T07:40:25;253.52;;;89.85;;
23310;SDS011;11828;51.508;18.118;2023-04-24T07:42:51;249.10;;;87.13;;
23310;SDS011;11828;51.508;18.118;2023-04-24T07:45:17;260.08;;;89.88;;
23310;SDS011;11828;51.508;18.118;2023-04-24T07:47:44;265.50;;;91.47;;
23310;SDS011;11828;51.508;18.118;2023-04-24T07:50:11;259.45;;;91.75;;
23310;SDS011;11828;51.508;18.118;2023-04-24T07:52:38;268.20;;;90.68;;
23310;SDS011;11828;51.508;18.118;2023-04-24T07:55:05;256.67;;;91.28;;
23310;SDS011;11828;51.508;18.118;2023-04-24T07:57:35;264.90;;;91.00;;
23310;SDS011;11828;51.508;18.118;2023-04-24T08:00:02;255.65;;;89.97;;
23310;SDS011;11828;51.508;18.118;2023-04-24T08:02:31;258.75;;;89.15;;
23310;SDS011;11828;51.508;18.118;2023-04-24T08:04:57;252.20;;;89.93;;
23310;SDS011;11828;51.508;18.118;2023-04-24T08:07:23;252.75;;;89.22;;
23310;SDS011;11828;51.508;18.118;2023-04-24T08:09:49;30.65;;;13.55;;
23310;SDS011;11828;51.508;18.118;2023-04-24T08:12:15;34.92;;;16.02;;
23310;SDS011;11828;51.508;18.118;2023-04-24T08:14:41;36.40;;;15.38;;
23310;SDS011;11828;51.508;18.118;2023-04-24T08:17:08;96.57;;;64.30;;
23310;SDS011;11828;51.508;18.118;2023-04-24T08:19:34;136.02;;;66.88;;
23310;SDS011;11828;51.508;18.118;2023-04-24T08:22:00;78.60;;;37.97;;
23310;SDS011;11828;51.508;18.118;2023-04-24T08:24:26;45.95;;;19.77;;
23310;SDS011;11828;51.508;18.118;2023-04-24T08:26:52;25.67;;;14.65;;
23310;SDS011;11828;51.508;18.118;2023-04-24T08:29:19;31.88;;;14.60;;
23310;SDS011;11828;51.508;18.118;2023-04-24T08:31:46;20.33;;;9.80;;
23310;SDS011;11828;51.508;18.118;2023-04-24T08:34:12;20.17;;;8.85;;
23310;SDS011;11828;51.508;18.118;2023-04-24T08:36:38;22.17;;;10.23;;
23310;SDS011;11828;51.508;18.118;2023-04-24T08:39:06;26.85;;;9.25;;
23310;SDS011;11828;51.508;18.118;2023-04-24T08:41:33;25.05;;;11.68;;
23310;SDS011;11828;51.508;18.118;2023-04-24T08:44:01;22.23;;;11.20;;
23310;SDS011;11828;51.508;18.118;2023-04-24T08:46:28;28.23;;;12.82;;
23310;SDS011;11828;51.508;18.118;2023-04-24T08:48:55;141.85;;;73.05;;
23310;SDS011;11828;51.508;18.118;2023-04-24T08:51:23;41.13;;;19.23;;
23310;SDS011;11828;51.508;18.118;2023-04-24T08:53:53;18.83;;;8.93;;
23310;SDS011;11828;51.508;18.118;2023-04-24T08:56:21;14.98;;;7.25;;
23310;SDS011;11828;51.508;18.118;2023-04-24T08:58:50;50.63;;;31.10;;
23310;SDS011;11828;51.508;18.118;2023-04-24T09:01:18;24.85;;;11.82;;
23310;SDS011;11828;51.508;18.118;2023-04-24T09:03:49;41.42;;;17.23;;
23310;SDS011;11828;51.508;18.118;2023-04-24T09:06:16;35.65;;;19.13;;
23310;SDS011;11828;51.508;18.118;2023-04-24T09:08:43;41.50;;;17.33;;
23310;SDS011;11828;51.508;18.118;2023-04-24T09:11:11;24.52;;;12.10;;
23310;SDS011;11828;51.508;18.118;2023-04-24T09:13:37;25.63;;;15.27;;
23310;SDS011;11828;51.508;18.118;2023-04-24T09:16:04;14.45;;;7.78;;
23310;SDS011;11828;51.508;18.118;2023-04-24T09:18:30;27.83;;;12.00;;
23310;SDS011;11828;51.508;18.118;2023-04-24T09:20:57;13.48;;;6.60;;
23310;SDS011;11828;51.508;18.118;2023-04-24T09:23:33;11.20;;;5.22;;
23310;SDS011;11828;51.508;18.118;2023-04-24T09:26:00;14.23;;;5.53;;
23310;SDS011;11828;51.508;18.118;2023-04-24T09:28:37;13.55;;;5.43;;
23310;SDS011;11828;51.508;18.118;2023-04-24T09:31:14;15.10;;;6.90;;
23310;SDS011;11828;51.508;18.118;2023-04-24T09:34:03;13.13;;;7.03;;
23310;SDS011;11828;51.508;18.118;2023-04-24T09:39:05;13.13;;;6.55;;
23310;SDS011;11828;51.508;18.118;2023-04-24T09:41:44;18.85;;;6.32;;
23310;SDS011;11828;51.508;18.118;2023-04-24T09:44:15;14.75;;;6.35;;
23310;SDS011;11828;51.508;18.118;2023-04-24T09:46:59;15.68;;;6.35;;
23310;SDS011;11828;51.508;18.118;2023-04-24T09:49:26;12.70;;;6.25;;
23310;SDS011;11828;51.508;18.118;2023-04-24T09:52:07;25.73;;;7.38;;
23310;SDS011;11828;51.508;18.118;2023-04-24T09:54:35;17.30;;;6.47;;
23310;SDS011;11828;51.508;18.118;2023-04-24T09:57:04;18.30;;;7.00;;
23310;SDS011;11828;51.508;18.118;2023-04-24T09:59:34;13.82;;;6.15;;
23310;SDS011;11828;51.508;18.118;2023-04-24T10:02:00;18.25;;;6.65;;
23310;SDS011;11828;51.508;18.118;2023-04-24T10:04:27;12.75;;;6.85;;
23310;SDS011;11828;51.508;18.118;2023-04-24T10:06:55;17.05;;;6.43;;
23310;SDS011;11828;51.508;18.118;2023-04-24T10:09:23;16.02;;;6.63;;
23310;SDS011;11828;51.508;18.118;2023-04-24T10:11:52;18.65;;;7.75;;
23310;SDS011;11828;51.508;18.118;2023-04-24T10:14:20;14.60;;;6.82;;
23310;SDS011;11828;51.508;18.118;2023-04-24T10:16:50;22.88;;;8.52;;
23310;SDS011;11828;51.508;18.118;2023-04-24T10:19:19;17.92;;;7.43;;
23310;SDS011;11828;51.508;18.118;2023-04-24T10:21:46;18.45;;;8.00;;
23310;SDS011;11828;51.508;18.118;2023-04-24T10:24:13;24.60;;;8.88;;
23310;SDS011;11828;51.508;18.118;2023-04-24T10:26:41;18.77;;;7.82;;
23310;SDS011;11828;51.508;18.118;2023-04-24T10:29:09;19.33;;;7.32;;
23310;SDS011;11828;51.508;18.118;2023-04-24T10:31:40;19.88;;;8.05;;
23310;SDS011;11828;51.508;18.118;2023-04-24T10:34:08;25.23;;;7.78;;
23310;SDS011;11828;51.508;18.118;2023-04-24T10:36:36;18.63;;;7.68;;
23310;SDS011;11828;51.508;18.118;2023-04-24T10:39:09;23.05;;;7.82;;
23310;SDS011;11828;51.508;18.118;2023-04-24T10:41:38;20.63;;;7.97;;
23310;SDS011;11828;51.508;18.118;2023-04-24T10:46:35;26.23;;;9.00;;
23310;SDS011;11828;51.508;18.118;2023-04-24T10:49:03;20.00;;;8.40;;
23310;SDS011;11828;51.508;18.118;2023-04-24T10:54:29;15.95;;;7.10;;
23310;SDS011;11828;51.508;18.118;2023-04-24T10:59:45;17.80;;;12.70;;
23310;SDS011;11828;51.508;18.118;2023-04-24T11:02:17;21.73;;;13.68;;
23310;SDS011;11828;51.508;18.118;2023-04-24T11:04:44;47.67;;;16.27;;
23310;SDS011;11828;51.508;18.118;2023-04-24T11:07:11;23.48;;;14.98;;
23310;SDS011;11828;51.508;18.118;2023-04-24T11:09:38;27.55;;;24.88;;
23310;SDS011;11828;51.508;18.118;2023-04-24T11:12:08;113.05;;;77.38;;
23310;SDS011;11828;51.508;18.118;2023-04-24T11:17:30;71.65;;;61.47;;
23310;SDS011;11828;51.508;18.118;2023-04-24T11:20:11;61.45;;;51.25;;
23310;SDS011;11828;51.508;18.118;2023-04-24T11:22:43;35.97;;;27.70;;
23310;SDS011;11828;51.508;18.118;2023-04-24T11:25:09;82.28;;;62.00;;
23310;SDS011;11828;51.508;18.118;2023-04-24T11:27:38;37.92;;;30.98;;
23310;SDS011;11828;51.508;18.118;2023-04-24T11:30:07;28.63;;;21.15;;
23310;SDS011;11828;51.508;18.118;2023-04-24T11:32:42;31.58;;;28.42;;
23310;SDS011;11828;51.508;18.118;2023-04-24T11:35:13;43.92;;;39.83;;
23310;SDS011;11828;51.508;18.118;2023-04-24T11:37:47;33.90;;;28.80;;
23310;SDS011;11828;51.508;18.118;2023-04-24T11:40:16;27.60;;;23.52;;
23310;SDS011;11828;51.508;18.118;2023-04-24T11:42:46;28.83;;;20.58;;
23310;SDS011;11828;51.508;18.118;2023-04-24T11:45:14;25.00;;;19.73;;
23310;SDS011;11828;51.508;18.118;2023-04-24T11:47:42;25.67;;;11.35;;
23310;SDS011;11828;51.508;18.118;2023-04-24T11:50:13;14.48;;;7.65;;
23310;SDS011;11828;51.508;18.118;2023-04-24T11:52:43;32.45;;;14.82;;
23310;SDS011;11828;51.508;18.118;2023-04-24T12:00:15;133.50;;;82.53;;
23310;SDS011;11828;51.508;18.118;2023-04-24T12:02:44;43.90;;;39.28;;
23310;SDS011;11828;51.508;18.118;2023-04-24T12:05:19;11.93;;;6.40;;
23310;SDS011;11828;51.508;18.118;2023-04-24T12:07:49;40.40;;;36.47;;
23310;SDS011;11828;51.508;18.118;2023-04-24T12:12:51;60.15;;;43.22;;
23310;SDS011;11828;51.508;18.118;2023-04-24T12:15:18;52.78;;;37.63;;
23310;SDS011;11828;51.508;18.118;2023-04-24T12:17:46;29.08;;;12.65;;
23310;SDS011;11828;51.508;18.118;2023-04-24T12:20:12;24.27;;;12.73;;
23310;SDS011;11828;51.508;18.118;2023-04-24T12:22:43;103.43;;;72.07;;
23310;SDS011;11828;51.508;18.118;2023-04-24T12:25:13;21.50;;;13.13;;
23310;SDS011;11828;51.508;18.118;2023-04-24T12:27:42;70.85;;;61.22;;
23310;SDS011;11828;51.508;18.118;2023-04-24T12:30:11;44.47;;;11.98;;
23310;SDS011;11828;51.508;18.118;2023-04-24T12:32:46;41.15;;;31.02;;
23310;SDS011;11828;51.508;18.118;2023-04-24T12:35:21;38.40;;;32.92;;
23310;SDS011;11828;51.508;18.118;2023-04-24T12:37:50;149.48;;;87.35;;
23310;SDS011;11828;51.508;18.118;2023-04-24T12:40:16;212.60;;;96.47;;
23310;SDS011;11828;51.508;18.118;2023-04-24T12:42:46;181.75;;;93.60;;
23310;SDS011;11828;51.508;18.118;2023-04-24T12:45:15;137.27;;;86.93;;
23310;SDS011;11828;51.508;18.118;2023-04-24T12:47:43;110.55;;;77.68;;
23310;SDS011;11828;51.508;18.118;2023-04-24T12:50:12;213.30;;;91.55;;
23310;SDS011;11828;51.508;18.118;2023-04-24T12:52:40;163.40;;;87.55;;
23310;SDS011;11828;51.508;18.118;2023-04-24T12:55:07;196.10;;;89.40;;
23310;SDS011;11828;51.508;18.118;2023-04-24T12:57:35;131.48;;;79.88;;
23310;SDS011;11828;51.508;18.118;2023-04-24T13:00:03;250.57;;;92.40;;
23310;SDS011;11828;51.508;18.118;2023-04-24T13:02:33;260.00;;;92.72;;
23310;SDS011;11828;51.508;18.118;2023-04-24T13:05:00;203.43;;;91.38;;
23310;SDS011;11828;51.508;18.118;2023-04-24T13:07:27;240.48;;;95.20;;
23310;SDS011;11828;51.508;18.118;2023-04-24T13:09:54;163.32;;;86.05;;
23310;SDS011;11828;51.508;18.118;2023-04-24T13:12:22;195.63;;;91.85;;
23310;SDS011;11828;51.508;18.118;2023-04-24T13:14:51;215.65;;;92.40;;
23310;SDS011;11828;51.508;18.118;2023-04-24T13:17:18;252.38;;;93.72;;
23310;SDS011;11828;51.508;18.118;2023-04-24T13:19:44;217.20;;;91.57;;
23310;SDS011;11828;51.508;18.118;2023-04-24T13:22:11;220.40;;;89.85;;
23310;SDS011;11828;51.508;18.118;2023-04-24T13:24:38;219.57;;;90.32;;
23310;SDS011;11828;51.508;18.118;2023-04-24T13:27:06;223.52;;;89.43;;
23310;SDS011;11828;51.508;18.118;2023-04-24T13:29:33;175.70;;;87.75;;
23310;SDS011;11828;51.508;18.118;2023-04-24T13:31:59;244.15;;;89.32;;
23310;SDS011;11828;51.508;18.118;2023-04-24T13:34:25;243.85;;;88.22;;
23310;SDS011;11828;51.508;18.118;2023-04-24T13:36:53;265.42;;;91.90;;
23310;SDS011;11828;51.508;18.118;2023-04-24T13:39:21;258.33;;;84.80;;
23310;SDS011;11828;51.508;18.118;2023-04-24T13:41:48;262.90;;;87.13;;
23310;SDS011;11828;51.508;18.118;2023-04-24T13:44:15;243.73;;;84.05;;
23310;SDS011;11828;51.508;18.118;2023-04-24T13:46:43;237.85;;;84.85;;
23310;SDS011;11828;51.508;18.118;2023-04-24T13:49:12;243.35;;;83.65;;
23310;SDS011;11828;51.508;18.118;2023-04-24T13:51:39;247.02;;;85.40;;
23310;SDS011;11828;51.508;18.118;2023-04-24T13:54:06;241.00;;;85.45;;
23310;SDS011;11828;51.508;18.118;2023-04-24T13:56:33;221.38;;;86.13;;
23310;SDS011;11828;51.508;18.118;2023-04-24T13:58:59;190.40;;;69.95;;
23310;SDS011;11828;51.508;18.118;2023-04-24T14:01:26;180.23;;;74.70;;
23310;SDS011;11828;51.508;18.118;2023-04-24T14:03:52;192.82;;;81.43;;
23310;SDS011;11828;51.508;18.118;2023-04-24T14:06:19;235.77;;;83.50;;
23310;SDS011;11828;51.508;18.118;2023-04-24T14:08:46;211.73;;;75.32;;
23310;SDS011;11828;51.508;18.118;2023-04-24T14:11:13;188.57;;;84.60;;
23310;SDS011;11828;51.508;18.118;2023-04-24T14:13:40;167.68;;;74.70;;
23310;SDS011;11828;51.508;18.118;2023-04-24T14:16:08;225.05;;;86.00;;
23310;SDS011;11828;51.508;18.118;2023-04-24T14:18:34;227.82;;;84.68;;
23310;SDS011;11828;51.508;18.118;2023-04-24T14:21:04;225.18;;;82.70;;
23310;SDS011;11828;51.508;18.118;2023-04-24T14:23:31;236.85;;;82.95;;